Time;durP1;ratioP1;P1;durP2;ratioP2;P2;SDS_P1;SDS_P2;PMS_P1;PMS_P2;Temp;Humidity;BMP_temperature;BMP_pressure;BME280_temperature;BME280_humidity;BME280_pressure;Samples;Min_cycle;Max_cycle;Signal;HPM_P1;HPM_P2
2023/08/21 00:01:26;;;;;;;;;;;;;;;30.41;41.59;94816.25;5042167;28;9174;-56
2023/08/21 00:03:52;;;;;;;;;;;;;;;30.44;41.42;94818.72;5005926;28;8855;-56
2023/08/21 00:06:18;;;;;;;;;;;;;;;30.43;40.87;94816.47;5028385;28;9144;-56
2023/08/21 00:08:44;;;;;;;;;;;;;;;30.41;40.94;94817.00;5026286;28;7864;-56
2023/08/21 00:11:17;;;;;;;;;;;;;;;30.39;41.09;94816.81;5011512;28;7209;-56
2023/08/21 00:13:47;;;;;;;;;;;;;;;30.40;41.57;94815.53;5039518;28;8295;-56
2023/08/21 00:16:32;;;;;;;;;;;;;;;30.39;41.12;94818.81;5011417;28;7308;-56
2023/08/21 00:19:09;;;;;;;;;;;;;;;30.39;41.32;94807.72;5047247;28;8998;-56
2023/08/21 00:22:08;;;;;;;;;;;;;;;30.39;41.31;94810.50;4999507;28;7635;-56
2023/08/21 00:24:47;;;;;;;;;;;;;;;30.37;41.11;94808.25;5025291;28;7604;-56
2023/08/21 00:27:13;;;;;;;;;;;;;;;30.36;40.70;94806.03;4990550;28;7135;-57
2023/08/21 00:29:53;;;;;;;;;;;;;;;30.36;41.43;94806.03;4991541;28;7152;-56
2023/08/21 00:32:35;;;;;;;;;;;;;;;30.34;40.61;94811.38;4988252;28;7241;-56
2023/08/21 00:35:01;;;;;;;;;;;;;;;30.34;41.30;94803.75;4987670;28;9355;-56
2023/08/21 00:38:17;;;;;;;;;;;;;;;30.35;40.97;94801.75;4996767;28;7056;-56
2023/08/21 00:40:43;;;;;;;;;;;;;;;30.32;40.87;94806.31;4972883;28;7239;-56
2023/08/21 00:43:13;;;;;;;;;;;;;;;30.32;41.34;94803.56;4977159;28;7448;-56
2023/08/21 00:46:22;;;;;;;;;;;;;;;30.32;41.02;94798.00;4964698;28;7191;-60
2023/08/21 00:48:57;;;;;;;;;;;;;;;30.30;40.85;94803.31;4989427;28;9263;-60
2023/08/21 00:51:54;;;;;;;;;;;;;;;30.29;40.84;94796.28;4973974;28;9033;-60
2023/08/21 00:54:22;;;;;;;;;;;;;;;30.28;40.56;94794.78;4917985;29;9135;-61
2023/08/21 00:57:04;;;;;;;;;;;;;;;30.23;41.04;94798.38;4917519;29;8760;-60
2023/08/21 00:59:33;;;;;;;;;;;;;;;30.25;40.73;94804.19;4925777;29;7670;-60
2023/08/21 01:01:59;;;;;;;;;;;;;;;30.24;41.27;94797.13;4915916;29;7444;-60
2023/08/21 01:04:25;;;;;;;;;;;;;;;30.24;40.79;94794.34;4932774;29;7389;-61
2023/08/21 01:06:52;;;;;;;;;;;;;;;30.25;40.54;94797.88;4915812;29;7588;-61
2023/08/21 01:09:42;;;;;;;;;;;;;;;30.25;40.33;94801.41;4911861;29;7094;-61
2023/08/21 01:12:33;;;;;;;;;;;;;;;30.23;41.61;94801.16;4915262;29;9195;-61
2023/08/21 01:15:18;;;;;;;;;;;;;;;30.22;40.86;94807.25;4918798;29;9203;-60
2023/08/21 01:17:57;;;;;;;;;;;;;;;30.21;41.39;94806.50;4924793;28;9146;-60
2023/08/21 01:20:28;;;;;;;;;;;;;;;30.19;40.27;94808.34;4943246;28;7246;-60
2023/08/21 01:23:08;;;;;;;;;;;;;;;30.20;41.06;94807.03;4928387;28;8062;-60
2023/08/21 01:25:44;;;;;;;;;;;;;;;30.17;40.39;94799.75;4952904;28;7229;-60
2023/08/21 01:28:20;;;;;;;;;;;;;;;30.20;40.84;94809.81;4968250;28;7233;-60
2023/08/21 01:31:06;;;;;;;;;;;;;;;30.19;40.78;94811.09;4982823;28;7718;-60
2023/08/21 01:33:37;;;;;;;;;;;;;;;30.18;41.38;94809.59;5045748;28;7395;-60
2023/08/21 01:36:05;;;;;;;;;;;;;;;30.18;40.99;94815.16;5011404;28;8677;-60
2023/08/21 01:38:35;;;;;;;;;;;;;;;30.15;40.39;94808.63;5030878;28;8909;-60
2023/08/21 01:41:02;;;;;;;;;;;;;;;30.16;41.03;94814.94;5009247;28;7232;-60
2023/08/21 01:43:31;;;;;;;;;;;;;;;30.15;41.14;94805.84;5029485;28;7203;-60
2023/08/21 01:45:57;;;;;;;;;;;;;;;30.14;40.97;94809.91;5009524;28;7149;-60
2023/08/21 01:48:26;;;;;;;;;;;;;;;30.15;40.56;94811.41;5017183;28;9084;-60
2023/08/21 01:50:54;;;;;;;;;;;;;;;30.12;41.40;94806.94;4997223;28;7279;-60
2023/08/21 01:53:22;;;;;;;;;;;;;;;30.11;40.81;94802.66;5010691;28;7234;-60
2023/08/21 01:55:48;;;;;;;;;;;;;;;30.10;40.45;94805.97;5025712;28;7219;-64
2023/08/21 01:58:14;;;;;;;;;;;;;;;30.12;40.39;94812.47;5022024;28;7485;-64
2023/08/21 02:00:59;;;;;;;;;;;;;;;30.13;40.25;94813.97;5033033;28;7284;-64
2023/08/21 02:03:26;;;;;;;;;;;;;;;30.10;40.43;94812.25;5007383;28;9287;-64
2023/08/21 02:06:01;;;;;;;;;;;;;;;30.08;40.28;94817.56;5007048;28;7244;-64
2023/08/21 02:08:34;;;;;;;;;;;;;;;30.08;40.40;94814.81;5009106;28;7263;-64
2023/08/21 02:11:03;;;;;;;;;;;;;;;30.07;41.05;94818.88;5010426;28;8508;-64
2023/08/21 02:14:08;;;;;;;;;;;;;;;30.06;40.53;94816.63;5017884;28;8745;-64
2023/08/21 02:16:54;;;;;;;;;;;;;;;30.03;40.50;94812.88;4962673;28;9089;-64
2023/08/21 02:19:24;;;;;;;;;;;;;;;30.03;41.08;94823.97;4948070;28;7314;-64
2023/08/21 02:22:21;;;;;;;;;;;;;;;30.04;40.64;94816.38;4956917;28;7251;-64
2023/08/21 02:24:50;;;;;;;;;;;;;;;30.04;40.96;94819.91;4945377;28;7237;-64
2023/08/21 02:27:16;;;;;;;;;;;;;;;30.04;41.23;94822.69;4937160;28;7038;-64
2023/08/21 02:29:57;;;;;;;;;;;;;;;30.02;40.88;94822.47;4966469;28;9694;-64
2023/08/21 02:32:35;;;;;;;;;;;;;;;30.00;41.16;94816.72;4954623;28;9099;-64
2023/08/21 02:35:05;;;;;;;;;;;;;;;29.99;40.44;94814.47;4943951;29;9484;-64
2023/08/21 02:37:34;;;;;;;;;;;;;;;29.99;41.07;94825.56;4964957;28;7260;-64
2023/08/21 02:40:00;;;;;;;;;;;;;;;29.97;40.20;94817.03;4963936;28;7280;-64
2023/08/21 02:42:27;;;;;;;;;;;;;;;29.98;41.44;94824.81;4968943;28;7312;-64
2023/08/21 02:44:53;;;;;;;;;;;;;;;29.94;40.38;94818.84;4963551;28;7268;-64
2023/08/21 02:47:19;;;;;;;;;;;;;;;29.99;40.75;94828.34;4988791;28;7195;-64
2023/08/21 02:49:45;;;;;;;;;;;;;;;29.99;40.29;94831.88;5008673;28;9351;-64
2023/08/21 02:52:20;;;;;;;;;;;;;;;29.94;40.56;94826.41;5004675;28;9018;-64
2023/08/21 02:54:48;;;;;;;;;;;;;;;29.97;40.24;94817.75;5018036;28;7324;-64
2023/08/21 02:57:17;;;;;;;;;;;;;;;29.96;40.99;94824.59;5011359;28;7395;-64
2023/08/21 03:00:08;;;;;;;;;;;;;;;29.95;41.06;94828.63;5042141;28;7298;-64
2023/08/21 03:02:44;;;;;;;;;;;;;;;29.88;40.28;94823.72;5025380;28;8801;-64
2023/08/21 03:05:31;;;;;;;;;;;;;;;29.93;40.38;94824.91;5027932;28;8953;-56
2023/08/21 03:08:13;;;;;;;;;;;;;;;29.92;41.38;94826.94;5012101;28;6985;-56
2023/08/21 03:11:13;;;;;;;;;;;;;;;29.90;40.62;94821.19;5017998;28;9060;-56
2023/08/21 03:13:41;;;;;;;;;;;;;;;29.90;40.19;94821.19;5012028;28;6972;-56
2023/08/21 03:16:07;;;;;;;;;;;;;;;29.90;41.33;94828.75;5008364;28;7259;-57
2023/08/21 03:18:53;;;;;;;;;;;;;;;29.89;40.37;94822.44;5013281;28;10291;-57
2023/08/21 03:21:34;;;;;;;;;;;;;;;29.86;40.14;94817.97;4995819;28;9190;-56
2023/08/21 03:24:18;;;;;;;;;;;;;;;29.87;40.64;94816.69;5011978;28;7797;-56
2023/08/21 03:26:57;;;;;;;;;;;;;;;29.87;40.61;94816.69;4993882;28;9380;-56
2023/08/21 03:29:25;;;;;;;;;;;;;;;29.87;41.13;94830.53;4993155;28;9067;-56
2023/08/21 03:32:01;;;;;;;;;;;;;;;29.86;40.52;94825.53;4988895;28;7261;-56
2023/08/21 03:34:36;;;;;;;;;;;;;;;29.87;40.04;94825.00;5006294;28;9061;-56
2023/08/21 03:37:03;;;;;;;;;;;;;;;29.86;41.12;94815.19;5011039;28;7083;-56
2023/08/21 03:40:03;;;;;;;;;;;;;;;29.86;40.39;94820.00;5006179;28;7181;-56
2023/08/21 03:42:34;;;;;;;;;;;;;;;29.84;40.33;94820.50;4957473;28;7033;-56
2023/08/21 03:45:09;;;;;;;;;;;;;;;29.83;40.25;94815.50;4956503;28;7191;-56
2023/08/21 03:47:56;;;;;;;;;;;;;;;29.85;40.90;94818.47;4929245;29;8895;-56
2023/08/21 03:50:31;;;;;;;;;;;;;;;29.78;40.41;94815.06;4961151;28;7187;-56
2023/08/21 03:53:06;;;;;;;;;;;;;;;29.81;40.61;94818.81;4935765;28;7316;-56
2023/08/21 03:55:33;;;;;;;;;;;;;;;29.79;40.64;94818.59;4951917;28;8449;-56
2023/08/21 03:58:02;;;;;;;;;;;;;;;29.78;40.70;94823.38;4952863;28;7013;-56
2023/08/21 04:00:34;;;;;;;;;;;;;;;29.79;40.42;94819.34;4951639;28;7067;-56
2023/08/21 04:03:08;;;;;;;;;;;;;;;29.77;40.77;94819.13;4931281;29;7045;-57
2023/08/21 04:05:56;;;;;;;;;;;;;;;29.77;40.44;94821.88;4921757;28;9001;-56
2023/08/21 04:08:22;;;;;;;;;;;;;;;29.74;40.45;94822.19;4938896;28;7251;-56
2023/08/21 04:10:49;;;;;;;;;;;;;;;29.73;41.07;94826.22;4923386;28;6995;-56
2023/08/21 04:13:14;;;;;;;;;;;;;;;29.73;40.64;94821.41;4930293;28;7269;-56
2023/08/21 04:15:45;;;;;;;;;;;;;;;29.75;40.23;94818.16;4969423;28;6978;-60
2023/08/21 04:18:12;;;;;;;;;;;;;;;29.71;40.33;94823.22;4992358;28;7924;-60
2023/08/21 04:20:47;;;;;;;;;;;;;;;29.72;40.69;94821.94;5011288;28;7231;-60
2023/08/21 04:23:22;;;;;;;;;;;;;;;29.70;40.38;94830.78;5009308;28;8278;-60
2023/08/21 04:26:16;;;;;;;;;;;;;;;29.68;40.63;94833.34;5003195;28;9088;-60
2023/08/21 04:28:45;;;;;;;;;;;;;;;29.69;41.84;94829.28;5010622;28;6856;-60
2023/08/21 04:31:20;;;;;;;;;;;;;;;29.73;41.33;94826.22;5007148;28;8653;-60
2023/08/21 04:34:15;;;;;;;;;;;;;;;29.78;40.73;94828.91;5027618;28;7006;-60
2023/08/21 04:36:50;;;;;;;;;;;;;;;29.77;40.61;94832.97;5025719;28;7092;-60
2023/08/21 04:39:22;;;;;;;;;;;;;;;29.80;40.25;94839.47;5012440;28;9140;-60
2023/08/21 04:41:56;;;;;;;;;;;;;;;29.79;41.55;94841.53;5012055;28;6986;-60
2023/08/21 04:45:02;;;;;;;;;;;;;;;29.79;41.38;94838.75;5027830;28;7016;-60
2023/08/21 04:47:39;;;;;;;;;;;;;;;29.77;41.04;94838.53;4966734;28;8680;-60
2023/08/21 04:50:07;;;;;;;;;;;;;;;29.80;40.75;94843.00;4946582;28;8986;-60
2023/08/21 04:52:38;;;;;;;;;;;;;;;29.82;41.59;94841.75;4945364;28;7330;-60
2023/08/21 04:55:09;;;;;;;;;;;;;;;29.79;40.91;94847.06;4964825;28;7086;-60
2023/08/21 04:57:37;;;;;;;;;;;;;;;29.75;40.41;94835.50;4965143;28;6989;-60
2023/08/21 05:00:09;;;;;;;;;;;;;;;29.74;40.53;94845.13;4960550;28;9047;-60
2023/08/21 05:02:40;;;;;;;;;;;;;;;29.70;41.27;94846.66;4964945;28;9406;-60
2023/08/21 05:05:21;;;;;;;;;;;;;;;29.69;41.02;94850.72;4963331;28;6987;-60
2023/08/21 05:07:57;;;;;;;;;;;;;;;29.65;41.31;94855.81;4957075;28;9131;-60
2023/08/21 05:10:36;;;;;;;;;;;;;;;29.66;40.93;94851.78;4953953;28;7271;-60
2023/08/21 05:13:04;;;;;;;;;;;;;;;29.68;40.94;94858.28;4951980;28;7230;-60
2023/08/21 05:15:33;;;;;;;;;;;;;;;29.64;40.21;94852.31;4946241;28;7413;-60
2023/08/21 05:18:18;;;;;;;;;;;;;;;29.71;41.23;94864.81;4960603;28;7241;-60
2023/08/21 05:20:56;;;;;;;;;;;;;;;29.70;41.18;94857.75;4969697;28;7170;-60
2023/08/21 05:23:26;;;;;;;;;;;;;;;29.65;40.29;94858.59;5006775;28;7085;-60
2023/08/21 05:25:55;;;;;;;;;;;;;;;29.63;40.29;94856.34;5017325;28;7271;-60
2023/08/21 05:28:25;;;;;;;;;;;;;;;29.64;40.28;94857.84;5025185;28;7072;-60
2023/08/21 05:30:54;;;;;;;;;;;;;;;29.61;41.42;94860.91;5024654;28;8240;-60
2023/08/21 05:33:22;;;;;;;;;;;;;;;29.59;40.67;94858.69;5025260;28;8196;-60
2023/08/21 05:35:51;;;;;;;;;;;;;;;29.58;41.50;94864.75;5038122;28;7070;-60
2023/08/21 05:38:24;;;;;;;;;;;;;;;29.59;40.86;94867.00;5024047;28;7114;-60
2023/08/21 05:40:58;;;;;;;;;;;;;;;29.57;41.30;94863.25;5001680;28;7168;-60
2023/08/21 05:43:31;;;;;;;;;;;;;;;29.55;41.20;94871.34;5010894;28;7244;-60
2023/08/21 05:45:59;;;;;;;;;;;;;;;29.48;41.77;94871.94;5006915;28;7598;-60
2023/08/21 05:48:25;;;;;;;;;;;;;;;29.47;41.68;94871.19;4994683;28;7018;-60
2023/08/21 05:50:58;;;;;;;;;;;;;;;29.42;41.75;94872.03;5006809;28;7426;-60
2023/08/21 05:53:40;;;;;;;;;;;;;;;29.41;41.48;94878.06;5018058;28;7295;-60
2023/08/21 05:56:28;;;;;;;;;;;;;;;29.34;42.10;94881.47;5025345;28;8725;-60
2023/08/21 05:59:25;;;;;;;;;;;;;;;29.32;41.67;94875.72;5013369;28;7443;-60
2023/08/21 06:01:55;;;;;;;;;;;;;;;29.35;41.87;94875.41;5036045;28;9045;-60
2023/08/21 06:04:21;;;;;;;;;;;;;;;29.38;42.17;94884.69;5011727;28;7040;-60
2023/08/21 06:06:53;;;;;;;;;;;;;;;29.39;42.22;94881.38;5022514;28;8914;-60
2023/08/21 06:09:22;;;;;;;;;;;;;;;29.38;41.80;94879.91;4995581;28;8661;-60
2023/08/21 06:11:48;;;;;;;;;;;;;;;29.39;42.23;94880.63;4996567;28;9126;-60
2023/08/21 06:14:28;;;;;;;;;;;;;;;29.40;42.75;94877.34;5042007;28;9249;-60
2023/08/21 06:17:04;;;;;;;;;;;;;;;29.40;41.77;94884.91;5009797;28;9028;-60
2023/08/21 06:19:30;;;;;;;;;;;;;;;29.42;42.20;94890.69;5011472;28;9022;-60
2023/08/21 06:22:11;;;;;;;;;;;;;;;29.39;41.70;94880.63;5007909;28;6969;-60
2023/08/21 06:24:44;;;;;;;;;;;;;;;29.38;42.99;94891.00;5041826;28;9374;-60
2023/08/21 06:27:11;;;;;;;;;;;;;;;29.42;41.82;94890.69;5008079;28;7230;-61
2023/08/21 06:30:09;;;;;;;;;;;;;;;29.42;41.91;94890.69;5009834;28;8922;-61
2023/08/21 06:32:40;;;;;;;;;;;;;;;29.42;42.81;94899.00;4948381;29;7265;-61
2023/08/21 06:35:06;;;;;;;;;;;;;;;29.39;42.05;94891.72;4934975;29;7048;-63
2023/08/21 06:37:34;;;;;;;;;;;;;;;29.42;43.41;94899.00;4936158;29;9409;-63
2023/08/21 06:40:02;;;;;;;;;;;;;;;29.42;42.37;94891.44;4935253;29;6985;-63
2023/08/21 06:42:38;;;;;;;;;;;;;;;29.39;43.43;94897.25;4952198;29;6856;-63
2023/08/21 06:45:05;;;;;;;;;;;;;;;29.44;42.51;94902.75;4932583;29;7183;-63
2023/08/21 06:47:36;;;;;;;;;;;;;;;29.44;42.41;94899.97;4946202;28;9148;-63
2023/08/21 06:50:02;;;;;;;;;;;;;;;29.42;43.31;94905.28;4937476;28;7002;-63
2023/08/21 06:52:30;;;;;;;;;;;;;;;29.42;42.61;94907.31;4924254;28;7384;-63
2023/08/21 06:55:14;;;;;;;;;;;;;;;29.37;42.52;94910.88;4936304;28;7197;-63
2023/08/21 06:57:52;;;;;;;;;;;;;;;29.36;42.47;94901.09;4932060;28;9281;-64
2023/08/21 07:00:53;;;;;;;;;;;;;;;29.33;42.40;94904.91;4933584;28;7224;-63
2023/08/21 07:03:31;;;;;;;;;;;;;;;29.31;42.45;94901.91;4896041;29;8722;-63
2023/08/21 07:06:19;;;;;;;;;;;;;;;29.31;43.66;94910.97;4911568;29;7180;-63
2023/08/21 07:08:56;;;;;;;;;;;;;;;29.30;43.25;94900.41;4924756;28;7440;-63
2023/08/21 07:11:36;;;;;;;;;;;;;;;29.26;44.21;94906.25;4964358;28;8699;-63
2023/08/21 07:14:17;;;;;;;;;;;;;;;29.29;43.79;94904.44;4978922;28;8938;-63
2023/08/21 07:16:51;;;;;;;;;;;;;;;29.33;43.70;94911.19;4967886;28;7389;-62
2023/08/21 07:19:19;;;;;;;;;;;;;;;29.36;44.74;94909.41;4970001;28;7137;-63
2023/08/21 07:21:47;;;;;;;;;;;;;;;29.37;44.84;94910.88;4952897;28;6968;-63
2023/08/21 07:24:20;;;;;;;;;;;;;;;29.41;44.39;94911.34;4970838;28;7246;-63
2023/08/21 07:26:51;;;;;;;;;;;;;;;29.42;44.38;94902.53;4966163;28;9017;-63
2023/08/21 07:29:29;;;;;;;;;;;;;;;29.47;45.15;94914.81;4957747;28;9449;-63
2023/08/21 07:32:28;;;;;;;;;;;;;;;29.50;43.54;94916.50;4969910;28;9042;-63
2023/08/21 07:35:06;;;;;;;;;;;;;;;29.52;43.94;94914.72;4949777;28;7151;-62
2023/08/21 07:37:43;;;;;;;;;;;;;;;29.52;42.90;94919.50;4964879;28;8912;-63
2023/08/21 07:40:12;;;;;;;;;;;;;;;29.51;43.36;94924.31;5011920;28;7512;-63
2023/08/21 07:42:39;;;;;;;;;;;;;;;29.49;43.36;94920.56;5028401;28;9261;-62
2023/08/21 07:45:06;;;;;;;;;;;;;;;29.51;43.11;94920.78;5012448;28;7255;-61
2023/08/21 07:47:32;;;;;;;;;;;;;;;29.53;43.53;94926.56;5021871;28;7256;-62
2023/08/21 07:49:59;;;;;;;;;;;;;;;29.56;42.97;94925.50;5046108;28;9055;-62
2023/08/21 07:52:36;;;;;;;;;;;;;;;29.58;43.91;94925.75;5039935;28;8771;-61
2023/08/21 07:55:06;;;;;;;;;;;;;;;29.60;43.44;94923.91;5029264;28;8749;-62
2023/08/21 07:57:33;;;;;;;;;;;;;;;29.60;44.37;94928.75;5023305;28;10488;-62
2023/08/21 08:00:32;;;;;;;;;;;;;;;29.62;44.07;94931.72;5011781;28;7239;-62
2023/08/21 08:06:33;;;;;;;;;;;;;;;29.64;43.59;94929.19;4973716;28;7213;-62
2023/08/21 08:09:09;;;;;;;;;;;;;;;29.65;44.16;94925.13;4954708;28;7266;-62
2023/08/21 08:11:36;;;;;;;;;;;;;;;29.63;43.69;94925.66;4968980;28;9176;-62
2023/08/21 08:14:01;;;;;;;;;;;;;;;29.64;44.26;94932.72;4971921;28;7814;-62
2023/08/21 08:16:40;;;;;;;;;;;;;;;29.65;43.70;94930.66;4957799;28;7663;-62
2023/08/21 08:19:09;;;;;;;;;;;;;;;29.66;43.32;94930.16;4957038;28;7055;-62
2023/08/21 08:21:40;;;;;;;;;;;;;;;29.65;42.80;94920.34;4954469;28;6990;-63
2023/08/21 08:24:45;;;;;;;;;;;;;;;29.68;43.96;94922.06;4966358;28;8903;-63
2023/08/21 08:27:13;;;;;;;;;;;;;;;29.66;42.77;94919.06;4876772;29;8269;-62
2023/08/21 08:29:39;;;;;;;;;;;;;;;29.70;43.72;94919.50;4892935;29;7125;-62
2023/08/21 08:32:06;;;;;;;;;;;;;;;29.71;43.52;94923.03;4883666;29;7162;-62
2023/08/21 08:34:40;;;;;;;;;;;;;;;29.73;43.66;94914.94;4895425;29;9115;-62
2023/08/21 08:37:39;;;;;;;;;;;;;;;29.73;43.60;94915.66;4886970;29;7013;-63
2023/08/21 08:40:06;;;;;;;;;;;;;;;29.76;42.93;94919.44;4879751;29;9079;-63
2023/08/21 08:42:38;;;;;;;;;;;;;;;29.73;43.52;94921.22;4896025;29;9115;-63
2023/08/21 08:45:05;;;;;;;;;;;;;;;29.75;43.29;94917.97;4930117;28;7030;-63
2023/08/21 08:47:37;;;;;;;;;;;;;;;29.77;43.21;94923.75;4933873;28;7285;-63
2023/08/21 08:50:06;;;;;;;;;;;;;;;29.77;43.05;94923.75;4911662;29;8655;-63
2023/08/21 08:52:37;;;;;;;;;;;;;;;29.76;43.74;94919.44;4909059;29;6991;-63
2023/08/21 08:55:08;;;;;;;;;;;;;;;29.78;43.96;94922.44;4925214;29;7062;-62
2023/08/21 08:57:34;;;;;;;;;;;;;;;29.82;43.30;94917.34;4915144;29;7321;-62
2023/08/21 09:00:04;;;;;;;;;;;;;;;29.80;42.81;94919.91;4934258;28;8112;-62
2023/08/21 09:02:30;;;;;;;;;;;;;;;29.83;43.99;94916.06;5012970;28;9283;-62
2023/08/21 09:04:58;;;;;;;;;;;;;;;29.84;42.85;94920.34;5024332;28;7006;-62
2023/08/21 09:07:36;;;;;;;;;;;;;;;29.78;43.28;94911.34;5024351;28;7073;-62
2023/08/21 09:10:28;;;;;;;;;;;;;;;29.86;43.99;94926.13;5012594;28;6985;-62
2023/08/21 09:12:57;;;;;;;;;;;;;;;29.84;43.32;94916.84;5012809;28;8003;-62
2023/08/21 09:15:49;;;;;;;;;;;;;;;29.84;43.74;94914.78;5021299;28;9007;-62
2023/08/21 09:18:19;;;;;;;;;;;;;;;29.84;44.16;94917.56;5025797;28;9450;-61
2023/08/21 09:21:05;;;;;;;;;;;;;;;29.86;43.23;94914.28;5009199;28;7264;-62
2023/08/21 09:23:31;;;;;;;;;;;;;;;29.86;43.55;94908.72;5004200;28;7249;-62
2023/08/21 09:26:05;;;;;;;;;;;;;;;29.85;43.36;94910.75;5012832;28;9140;-62
2023/08/21 09:28:34;;;;;;;;;;;;;;;29.86;43.76;94898.41;5012518;28;7314;-61
2023/08/21 09:31:21;;;;;;;;;;;;;;;29.86;42.91;94909.50;5005464;28;8889;-62
2023/08/21 09:34:06;;;;;;;;;;;;;;;29.86;43.19;94908.72;5008192;28;9065;-62
2023/08/21 09:36:40;;;;;;;;;;;;;;;29.87;43.19;94904.66;5006571;28;9118;-61
2023/08/21 09:39:15;;;;;;;;;;;;;;;29.88;43.05;94901.38;5022544;28;9345;-62
2023/08/21 09:42:01;;;;;;;;;;;;;;;29.89;43.81;94902.88;5001589;28;7230;-62
2023/08/21 09:44:35;;;;;;;;;;;;;;;29.88;43.97;94898.63;4997549;28;9317;-61
2023/08/21 09:47:01;;;;;;;;;;;;;;;29.86;43.72;94889.31;5012237;28;7384;-62
2023/08/21 09:49:33;;;;;;;;;;;;;;;29.88;43.23;94884.75;5019564;28;7001;-62
2023/08/21 09:52:47;;;;;;;;;;;;;;;29.91;43.86;94880.16;5028899;28;7248;-62
2023/08/21 09:55:18;;;;;;;;;;;;;;;29.93;43.85;94880.41;4999096;28;7207;-62
2023/08/21 09:57:58;;;;;;;;;;;;;;;29.94;43.71;94884.66;4981750;28;7365;-62
2023/08/21 10:00:37;;;;;;;;;;;;;;;29.95;42.81;94883.38;5006596;28;7166;-62
2023/08/21 10:03:13;;;;;;;;;;;;;;;29.94;43.70;94885.41;4988684;28;9012;-62
2023/08/21 10:05:40;;;;;;;;;;;;;;;29.95;43.08;94884.13;4971258;28;7044;-61
2023/08/21 10:08:07;;;;;;;;;;;;;;;29.90;43.73;94873.13;4971880;28;7227;-61
2023/08/21 10:10:38;;;;;;;;;;;;;;;29.94;43.77;94879.09;4987898;28;7291;-61
2023/08/21 10:13:06;;;;;;;;;;;;;;;29.95;42.72;94891.72;4975686;28;7258;-61
2023/08/21 10:15:36;;;;;;;;;;;;;;;29.93;43.91;94878.34;4990876;28;7228;-63
2023/08/21 10:18:29;;;;;;;;;;;;;;;29.91;43.59;94880.91;4969665;28;9737;-61
2023/08/21 10:21:09;;;;;;;;;;;;;;;29.91;43.32;94878.13;4971910;28;6986;-61
2023/08/21 10:23:40;;;;;;;;;;;;;;;29.95;42.72;94883.38;4986170;28;7211;-61
2023/08/21 10:26:09;;;;;;;;;;;;;;;29.95;43.54;94892.44;4969711;28;9157;-61
2023/08/21 10:29:08;;;;;;;;;;;;;;;29.95;43.11;94884.13;4971150;28;7257;-61
2023/08/21 10:31:38;;;;;;;;;;;;;;;29.96;43.54;94882.84;4994488;28;8700;-61
2023/08/21 10:34:08;;;;;;;;;;;;;;;29.94;43.07;94877.09;5005517;28;9392;-61
2023/08/21 10:36:44;;;;;;;;;;;;;;;29.97;43.39;94875.28;5025646;28;7089;-61
2023/08/21 10:39:19;;;;;;;;;;;;;;;29.98;42.70;94880.28;5035796;28;7074;-61
2023/08/21 10:42:07;;;;;;;;;;;;;;;30.00;43.38;94874.97;5025863;28;6979;-61
2023/08/21 10:44:59;;;;;;;;;;;;;;;30.00;42.84;94865.88;5018093;28;9186;-62
2023/08/21 10:47:42;;;;;;;;;;;;;;;30.03;43.27;94876.69;5026493;28;8985;-61
2023/08/21 10:50:18;;;;;;;;;;;;;;;30.02;43.42;94875.19;5027477;28;7282;-61
2023/08/21 10:52:50;;;;;;;;;;;;;;;30.05;43.47;94876.16;5027317;28;7679;-61
2023/08/21 10:55:25;;;;;;;;;;;;;;;30.03;42.69;94871.16;5015203;28;9094;-61
2023/08/21 10:58:11;;;;;;;;;;;;;;;30.07;43.08;94873.59;4996327;28;7198;-61
2023/08/21 11:01:05;;;;;;;;;;;;;;;30.10;43.44;94878.09;4987912;28;7286;-62
2023/08/21 11:03:46;;;;;;;;;;;;;;;30.09;42.67;94882.13;4999045;28;7220;-61
2023/08/21 11:06:22;;;;;;;;;;;;;;;30.10;42.69;94878.81;5005430;28;7069;-61
2023/08/21 11:09:03;;;;;;;;;;;;;;;30.09;43.10;94866.25;4992852;28;7246;-61
2023/08/21 11:12:04;;;;;;;;;;;;;;;30.14;42.36;94876.50;4995497;28;7124;-61
2023/08/21 11:14:43;;;;;;;;;;;;;;;30.16;42.96;94873.94;4940704;28;7133;-56
2023/08/21 11:17:23;;;;;;;;;;;;;;;30.17;43.57;94869.13;4964324;28;7325;-55
2023/08/21 11:19:52;;;;;;;;;;;;;;;30.16;42.20;94873.19;4935483;28;8425;-56
2023/08/21 11:22:19;;;;;;;;;;;;;;;30.17;42.21;94875.44;4965984;28;7288;-56
2023/08/21 11:24:57;;;;;;;;;;;;;;;30.17;42.36;94875.44;4951472;28;8826;-55
2023/08/21 11:27:34;;;;;;;;;;;;;;;30.17;42.86;94875.44;4947500;28;7157;-56
2023/08/21 11:30:02;;;;;;;;;;;;;;;30.18;42.96;94870.63;4964753;28;7236;-56
2023/08/21 11:32:38;;;;;;;;;;;;;;;30.16;43.47;94865.63;4987103;28;7309;-56
2023/08/21 11:35:07;;;;;;;;;;;;;;;30.15;43.39;94866.91;4974168;28;7306;-56
2023/08/21 11:37:45;;;;;;;;;;;;;;;30.15;43.22;94855.78;4958085;28;7080;-56
2023/08/21 11:40:14;;;;;;;;;;;;;;;30.19;43.02;94858.28;4969798;28;7433;-55
2023/08/21 11:42:42;;;;;;;;;;;;;;;30.21;42.78;94858.50;4972167;28;6998;-56
2023/08/21 11:45:12;;;;;;;;;;;;;;;30.22;42.88;94859.97;4953097;28;7281;-55
2023/08/21 11:47:39;;;;;;;;;;;;;;;30.23;42.58;94853.16;4972604;28;7250;-56
2023/08/21 11:50:09;;;;;;;;;;;;;;;30.24;42.37;94857.41;4953718;28;7019;-55
2023/08/21 11:52:38;;;;;;;;;;;;;;;30.25;43.03;94856.91;4994384;28;7541;-56
2023/08/21 11:55:12;;;;;;;;;;;;;;;30.23;42.38;94855.94;4984398;28;7348;-55
2023/08/21 11:57:53;;;;;;;;;;;;;;;30.24;42.70;94858.16;4991782;28;8811;-56
2023/08/21 12:00:28;;;;;;;;;;;;;;;30.24;42.36;94849.84;4997380;28;7214;-56
2023/08/21 12:03:26;;;;;;;;;;;;;;;30.28;42.86;94855.06;4988388;28;7324;-56
2023/08/21 12:06:11;;;;;;;;;;;;;;;30.29;42.98;94849.00;4953033;28;7430;-56
2023/08/21 12:08:39;;;;;;;;;;;;;;;30.28;42.72;94852.28;4956038;28;7260;-56
2023/08/21 12:11:07;;;;;;;;;;;;;;;30.30;43.19;94844.94;4954996;28;8747;-56
2023/08/21 12:13:35;;;;;;;;;;;;;;;30.31;42.79;94848.50;4944305;28;9073;-56
2023/08/21 12:16:14;;;;;;;;;;;;;;;30.33;43.32;94843.16;4967715;28;7092;-55
2023/08/21 12:18:42;;;;;;;;;;;;;;;30.34;43.17;94842.63;4946067;28;7192;-56
2023/08/21 12:21:18;;;;;;;;;;;;;;;30.34;43.66;94837.06;4938068;28;9252;-56
2023/08/21 12:24:16;;;;;;;;;;;;;;;30.38;42.76;94836.78;4953415;28;7257;-55
2023/08/21 12:26:54;;;;;;;;;;;;;;;30.38;43.13;94837.50;4922613;29;7398;-65
2023/08/21 12:29:24;;;;;;;;;;;;;;;30.38;43.04;94831.94;4902135;29;7247;-65
2023/08/21 12:31:52;;;;;;;;;;;;;;;30.39;43.06;94829.91;4915474;29;9363;-66
2023/08/21 12:34:22;;;;;;;;;;;;;;;30.44;43.61;94826.31;4898567;29;9071;-66
2023/08/21 12:37:17;;;;;;;;;;;;;;;30.44;42.23;94824.28;4910382;29;9495;-65
2023/08/21 12:39:53;;;;;;;;;;;;;;;30.47;42.67;94828.03;4896382;29;7535;-66
2023/08/21 12:42:22;;;;;;;;;;;;;;;30.47;43.27;94819.69;4902274;29;9093;-66
2023/08/21 12:44:48;;;;;;;;;;;;;;;30.47;42.64;94820.44;4910788;29;7006;-66
2023/08/21 12:47:16;;;;;;;;;;;;;;;30.47;42.31;94819.69;4924125;29;7045;-66
2023/08/21 12:49:42;;;;;;;;;;;;;;;30.46;43.22;94810.63;4897099;29;7164;-66
2023/08/21 12:52:08;;;;;;;;;;;;;;;30.48;42.91;94815.63;4900013;29;8229;-65
2023/08/21 12:54:43;;;;;;;;;;;;;;;30.49;42.88;94806.75;4914157;29;7427;-66
2023/08/21 12:57:12;;;;;;;;;;;;;;;30.49;43.12;94814.34;4917191;29;7223;-66
2023/08/21 12:59:38;;;;;;;;;;;;;;;30.51;43.10;94809.75;4900683;29;7261;-66
2023/08/21 13:02:23;;;;;;;;;;;;;;;30.53;41.96;94806.44;4936508;28;9312;-66
2023/08/21 13:05:07;;;;;;;;;;;;;;;30.49;42.78;94795.66;4948775;28;7233;-66
2023/08/21 13:08:02;;;;;;;;;;;;;;;30.57;41.79;94801.31;4926578;29;8234;-66
2023/08/21 13:10:30;;;;;;;;;;;;;;;30.61;42.38;94801.00;4944744;28;7367;-66
2023/08/21 13:12:56;;;;;;;;;;;;;;;30.62;42.39;94797.69;4925630;28;7255;-67
2023/08/21 13:15:35;;;;;;;;;;;;;;;30.59;42.25;94798.00;4928954;28;6990;-66
2023/08/21 13:18:08;;;;;;;;;;;;;;;30.59;42.74;94801.53;4988538;28;7119;-66
2023/08/21 13:21:03;;;;;;;;;;;;;;;30.60;42.69;94791.94;4988065;28;6971;-66
2023/08/21 13:23:31;;;;;;;;;;;;;;;30.59;41.97;94793.22;4942487;28;7002;-66
2023/08/21 13:26:29;;;;;;;;;;;;;;;30.58;42.97;94794.47;4923859;28;7297;-66
2023/08/21 13:29:01;;;;;;;;;;;;;;;30.57;42.86;94792.25;4943474;28;9603;-66
2023/08/21 13:31:40;;;;;;;;;;;;;;;30.60;42.22;94788.41;4928238;29;9026;-66
2023/08/21 13:34:09;;;;;;;;;;;;;;;30.60;42.35;94791.19;4939486;28;7483;-62
2023/08/21 13:36:37;;;;;;;;;;;;;;;30.61;42.81;94785.09;4942951;28;9112;-61
2023/08/21 13:39:15;;;;;;;;;;;;;;;30.64;41.98;94784.03;4927572;28;7637;-61
2023/08/21 13:41:42;;;;;;;;;;;;;;;30.66;41.83;94786.25;4943597;28;7809;-61
2023/08/21 13:44:16;;;;;;;;;;;;;;;30.64;42.69;94772.91;4940976;28;8824;-61